Laird, Nebraska
Current Conditions -  °F | °C
As of 7:55 AM on Friday 31 Oct 2014 (Local Time) from KHDE Reporting Station
Overcast Overcast  
Wind Chill: 19°   Ceiling: 1700
Heat Index: 29°   Visibility: 10mi
Dew Point: 23°   Wind: 14mph
Humidity: 77%   Direction: 30°NNE
Pressure: 30.53"   Gusts: 17mph
Location:  40.4734°N, 99.4675°W
Report Text: KHDE 311255Z AUTO 03012G15KT 10SM OVC017 M01/M05 A3053 RMK AO2 T10151050
Loading
Personal Weather Stations






























Interactive Weather Map
Tropical Storm Tracking
New forecast layout! Learn more

10-Day Weather Forecast

Advertisements
Track Severe Weather on mobile